createdAt,value
2022-11-24T00:01:34.506Z,53.80
2022-11-24T00:04:06.938Z,56.40
2022-11-24T00:06:37.011Z,49.40
2022-11-24T00:09:10.115Z,45.80
2022-11-24T00:11:39.347Z,58.30
2022-11-24T00:14:08.442Z,56.20
2022-11-24T00:16:39.140Z,48.90
2022-11-24T00:19:10.298Z,52.40
2022-11-24T00:21:39.715Z,58.50
2022-11-24T00:24:08.907Z,61.90
2022-11-24T00:26:38.381Z,42.80
2022-11-24T00:29:08.633Z,47.90
2022-11-24T00:31:41.263Z,52.30
2022-11-24T00:34:15.561Z,53.30
2022-11-24T00:36:45.274Z,53.30
2022-11-24T00:39:16.900Z,61.70
2022-11-24T00:41:46.341Z,39.70
2022-11-24T00:44:15.725Z,51.10
2022-11-24T00:46:45.170Z,49.60
2022-11-24T00:49:14.597Z,55.30
2022-11-24T00:51:43.926Z,70.50
2022-11-24T00:54:13.241Z,61.70
2022-11-24T00:56:42.304Z,51.20
2022-11-24T00:59:11.354Z,55.60
2022-11-24T01:01:40.458Z,55.00
2022-11-24T01:04:09.803Z,32.00
2022-11-24T01:06:38.846Z,60.20
2022-11-24T01:09:07.900Z,40.70
2022-11-24T01:11:55.579Z,52.50
2022-11-24T01:14:26.275Z,56.60
2022-11-24T01:16:55.889Z,50.10
2022-11-24T01:19:25.097Z,54.20
2022-11-24T01:21:54.310Z,62.30
2022-11-24T01:24:23.604Z,62.30
2022-11-24T01:26:52.633Z,61.00
2022-11-24T01:29:21.927Z,56.30
2022-11-24T01:31:51.234Z,63.10
2022-11-24T01:34:20.556Z,60.20
2022-11-24T01:36:49.886Z,58.70
2022-11-24T01:39:19.145Z,47.90
2022-11-24T01:41:48.251Z,59.50
2022-11-24T01:44:27.530Z,58.60
2022-11-24T01:47:37.018Z,54.50
2022-11-24T01:50:09.689Z,51.50
2022-11-24T01:52:53.234Z,54.40
2022-11-24T01:55:30.419Z,53.60
2022-11-24T01:58:08.301Z,60.10
2022-11-24T02:00:40.571Z,55.20
2022-11-24T02:03:11.645Z,53.30
2022-11-24T02:05:51.912Z,50.80
2022-11-24T02:08:47.805Z,58.60
2022-11-24T02:11:17.428Z,59.80
2022-11-24T02:13:48.500Z,58.60
2022-11-24T02:16:18.052Z,47.70
2022-11-24T02:18:47.454Z,52.00
2022-11-24T02:21:18.557Z,55.10
2022-11-24T02:24:17.756Z,53.80
2022-11-24T02:26:50.307Z,54.60
2022-11-24T02:29:21.544Z,57.70
2022-11-24T02:32:02.671Z,59.40
2022-11-24T02:34:32.284Z,59.40
2022-11-24T02:37:01.723Z,48.30
2022-11-24T02:39:30.966Z,50.50
2022-11-24T02:42:06.195Z,37.80
2022-11-24T02:44:41.793Z,56.90
2022-11-24T02:47:13.604Z,58.20
2022-11-24T02:49:42.971Z,59.00
2022-11-24T02:52:12.108Z,59.50
2022-11-24T02:54:41.559Z,57.00
2022-11-24T02:57:11.699Z,56.30
2022-11-24T02:59:40.801Z,61.20
2022-11-24T03:02:11.040Z,57.80
2022-11-24T03:04:40.150Z,55.70
2022-11-24T03:07:10.231Z,59.80
2022-11-24T03:09:39.260Z,54.50
2022-11-24T03:12:08.686Z,55.20
2022-11-24T03:14:37.761Z,62.10
2022-11-24T03:17:07.625Z,58.30
2022-11-24T03:19:36.566Z,56.90
2022-11-24T03:22:05.668Z,55.70
2022-11-24T03:24:34.879Z,69.80
2022-11-24T03:27:04.459Z,63.90
2022-11-24T03:29:33.699Z,65.50
2022-11-24T03:32:03.320Z,61.30
2022-11-24T03:34:32.693Z,61.30
2022-11-24T03:37:02.080Z,67.60
2022-11-24T03:39:31.155Z,54.80
2022-11-24T03:42:00.184Z,52.30
2022-11-24T03:44:29.293Z,53.90
2022-11-24T03:46:58.443Z,55.80
2022-11-24T03:49:27.542Z,53.60
2022-11-24T03:51:56.585Z,48.80
2022-11-24T03:54:25.919Z,48.20
2022-11-24T03:56:54.972Z,69.30
2022-11-24T03:59:24.039Z,46.30
2022-11-24T04:01:53.060Z,39.70
2022-11-24T04:04:21.998Z,47.20
2022-11-24T04:06:50.952Z,50.10
2022-11-24T04:09:19.925Z,61.30
2022-11-24T04:12:07.553Z,59.60
2022-11-24T04:14:36.853Z,60.10
2022-11-24T04:17:07.252Z,59.20
2022-11-24T04:19:36.385Z,57.50
2022-11-24T04:22:05.456Z,44.80
2022-11-24T04:24:34.819Z,59.10
2022-11-24T04:27:04.277Z,60.50
2022-11-24T04:29:33.517Z,52.90
2022-11-24T04:32:02.679Z,49.30
2022-11-24T04:34:32.290Z,62.10
2022-11-24T04:37:01.559Z,55.40
2022-11-24T04:39:30.534Z,51.40
2022-11-24T04:42:00.074Z,59.70
2022-11-24T04:44:29.177Z,58.10
2022-11-24T04:46:58.208Z,61.40
2022-11-24T04:49:27.361Z,59.00
2022-11-24T04:51:56.348Z,58.40
2022-11-24T04:54:25.360Z,59.50
2022-11-24T04:56:54.512Z,62.40
2022-11-24T04:59:23.532Z,62.70
2022-11-24T05:01:52.695Z,54.10
2022-11-24T05:04:22.327Z,60.50
2022-11-24T05:06:51.466Z,53.70
2022-11-24T05:09:20.459Z,59.40
2022-11-24T05:11:49.485Z,62.20
2022-11-24T05:14:18.523Z,72.00
2022-11-24T05:16:47.644Z,56.30
2022-11-24T05:19:16.892Z,57.50
2022-11-24T05:21:45.760Z,38.80
2022-11-24T05:24:14.999Z,47.00
2022-11-24T05:26:44.114Z,57.00
2022-11-24T05:29:13.341Z,45.90
2022-11-24T05:31:42.378Z,58.60
2022-11-24T05:34:11.530Z,60.90
2022-11-24T05:36:56.747Z,60.80
2022-11-24T05:39:25.823Z,63.40
2022-11-24T05:41:54.709Z,53.20
2022-11-24T05:44:23.617Z,49.90
2022-11-24T05:46:52.583Z,58.40
2022-11-24T05:49:21.615Z,60.50
2022-11-24T05:51:50.518Z,53.30
2022-11-24T05:54:19.549Z,59.70
2022-11-24T05:56:48.377Z,36.30
2022-11-24T05:59:17.068Z,50.30
2022-11-24T06:01:45.906Z,59.90
2022-11-24T06:04:14.845Z,67.20
2022-11-24T06:06:43.648Z,76.20
2022-11-24T06:09:12.359Z,61.50
2022-11-24T06:11:41.127Z,55.80
2022-11-24T06:14:11.633Z,52.90
2022-11-24T06:16:41.159Z,47.10
2022-11-24T06:19:11.849Z,62.50
2022-11-24T06:21:40.703Z,55.90
2022-11-24T06:24:09.801Z,57.20
2022-11-24T06:26:38.528Z,62.90
2022-11-24T06:29:07.507Z,108.60
2022-11-24T06:31:36.676Z,96.60
2022-11-24T06:34:11.968Z,89.10
2022-11-24T06:36:41.114Z,91.50
2022-11-24T06:39:11.138Z,79.70
2022-11-24T06:41:39.958Z,56.80
2022-11-24T06:44:09.047Z,59.10
2022-11-24T06:46:38.332Z,57.60
2022-11-24T06:49:07.064Z,60.90
2022-11-24T06:51:36.137Z,61.20
2022-11-24T06:54:11.020Z,59.90
2022-11-24T06:56:40.111Z,71.60
2022-11-24T06:59:19.229Z,61.50
2022-11-24T07:01:48.160Z,69.30
2022-11-24T07:04:17.206Z,59.90
2022-11-24T07:06:46.444Z,59.70
2022-11-24T07:09:15.284Z,60.80
2022-11-24T07:11:44.357Z,55.60
2022-11-24T07:14:13.104Z,57.70
2022-11-24T07:16:41.852Z,58.90
2022-11-24T07:19:11.515Z,61.80
2022-11-24T07:21:40.255Z,66.10
2022-11-24T07:24:09.334Z,46.20
2022-11-24T07:26:38.286Z,68.20
2022-11-24T07:29:07.180Z,57.90
2022-11-24T07:31:35.876Z,62.60
2022-11-24T07:34:04.720Z,64.40
2022-11-24T07:36:33.402Z,70.00
2022-11-24T07:39:02.135Z,67.90
2022-11-24T07:41:30.922Z,67.00
2022-11-24T07:43:59.777Z,68.70
2022-11-24T07:46:29.255Z,66.70
2022-11-24T07:48:58.605Z,68.70
2022-11-24T07:52:00.596Z,67.70
2022-11-24T07:54:29.746Z,65.80
2022-11-24T07:57:01.731Z,70.70
2022-11-24T07:59:41.647Z,65.70
2022-11-24T08:02:14.180Z,66.60
2022-11-24T08:04:43.128Z,64.20
2022-11-24T08:07:12.146Z,59.10
2022-11-24T08:09:41.164Z,64.10
2022-11-24T08:12:10.170Z,63.70
2022-11-24T08:14:38.965Z,63.30
2022-11-24T08:17:07.758Z,63.50
2022-11-24T08:19:36.545Z,63.80
2022-11-24T08:22:05.280Z,64.60
2022-11-24T08:24:35.174Z,62.10
2022-11-24T08:27:04.806Z,63.80
2022-11-24T08:29:33.737Z,69.30
2022-11-24T08:32:02.451Z,64.10
2022-11-24T08:34:31.832Z,65.90
2022-11-24T08:37:00.736Z,66.50
2022-11-24T08:39:29.528Z,65.60
2022-11-24T08:41:58.498Z,67.60
2022-11-24T08:44:29.045Z,72.40
2022-11-24T08:46:57.778Z,64.20
2022-11-24T08:49:26.851Z,77.30
2022-11-24T08:51:58.182Z,67.60
2022-11-24T08:54:27.145Z,72.10
2022-11-24T08:56:56.028Z,70.20
2022-11-24T08:59:24.888Z,72.40
2022-11-24T09:01:53.783Z,72.70
2022-11-24T09:04:22.727Z,78.60
2022-11-24T09:06:51.772Z,71.60
2022-11-24T09:09:20.526Z,72.70
2022-11-24T09:11:49.283Z,70.90
2022-11-24T09:14:18.158Z,67.00
2022-11-24T09:16:47.064Z,65.30
2022-11-24T09:19:15.871Z,66.00
2022-11-24T09:21:44.708Z,68.30
2022-11-24T09:24:13.547Z,64.80
2022-11-24T09:26:47.320Z,59.70
2022-11-24T09:29:17.525Z,48.30
2022-11-24T09:31:46.389Z,59.00
2022-11-24T09:34:16.312Z,58.90
2022-11-24T09:36:45.119Z,61.20
2022-11-24T09:39:14.089Z,59.30
2022-11-24T09:42:25.820Z,65.50
2022-11-24T09:45:00.567Z,60.70
2022-11-24T09:47:50.141Z,60.40
2022-11-24T09:50:34.705Z,66.20
2022-11-24T09:53:09.752Z,54.10
2022-11-24T09:55:48.965Z,60.00
2022-11-24T09:58:43.005Z,66.70
2022-11-24T10:01:29.085Z,61.70
2022-11-24T10:04:04.302Z,57.40
2022-11-24T10:07:33.040Z,59.50
2022-11-24T10:10:09.788Z,64.40
2022-11-24T10:13:10.926Z,54.40
2022-11-24T10:16:04.751Z,45.40
2022-11-24T10:18:46.356Z,57.70
2022-11-24T10:21:17.965Z,53.90
2022-11-24T10:24:18.834Z,53.30
2022-11-24T10:26:59.613Z,46.20
2022-11-24T10:29:40.876Z,55.70
2022-11-24T10:32:24.832Z,52.90
2022-11-24T10:35:15.004Z,52.50
2022-11-24T10:38:07.522Z,56.60
2022-11-24T10:40:57.316Z,52.30
2022-11-24T10:43:29.343Z,52.10
2022-11-24T10:46:20.221Z,55.20
2022-11-24T10:48:57.782Z,54.30
2022-11-24T10:52:14.341Z,54.30
2022-11-24T10:54:59.297Z,53.40
2022-11-24T10:57:40.748Z,48.00
2022-11-24T11:00:24.522Z,59.10
2022-11-24T11:03:33.349Z,56.90
2022-11-24T11:06:16.289Z,62.00
2022-11-24T11:08:45.243Z,57.70
2022-11-24T11:11:27.682Z,55.30
2022-11-24T11:14:10.697Z,63.70
2022-11-24T11:16:49.623Z,61.30
2022-11-24T11:20:00.263Z,48.70
2022-11-24T11:22:33.173Z,58.40
2022-11-24T11:25:36.680Z,55.60
2022-11-24T11:28:19.053Z,60.90
2022-11-24T11:31:22.496Z,61.10
2022-11-24T11:34:04.567Z,62.10
2022-11-24T11:36:53.363Z,55.70
2022-11-24T11:39:45.394Z,56.90
2022-11-24T11:43:06.503Z,57.30
2022-11-24T11:45:45.925Z,52.60
2022-11-24T11:48:26.911Z,68.80
2022-11-24T11:55:01.502Z,63.90
2022-11-24T11:58:06.715Z,61.10
2022-11-24T12:00:42.614Z,67.70
2022-11-24T12:03:17.623Z,64.10
2022-11-24T12:06:11.762Z,65.20
2022-11-24T12:09:21.015Z,63.00
2022-11-24T12:12:46.776Z,66.20
2022-11-24T12:15:32.163Z,63.60
2022-11-24T12:18:55.122Z,58.30
2022-11-24T12:21:37.286Z,61.50
2022-11-24T12:24:45.088Z,64.10
2022-11-24T12:27:47.842Z,60.50
2022-11-24T12:30:22.683Z,62.90
2022-11-24T12:33:11.658Z,55.70
2022-11-24T12:36:08.583Z,57.00
2022-11-24T12:39:07.382Z,60.20
2022-11-24T12:42:52.922Z,58.50
2022-11-24T12:45:39.430Z,64.10
2022-11-24T12:48:24.722Z,54.60
2022-11-24T12:50:56.623Z,63.60
2022-11-24T12:53:32.500Z,55.30
2022-11-24T12:56:10.061Z,64.50
2022-11-24T12:59:22.222Z,58.90
2022-11-24T13:02:48.231Z,63.50
2022-11-24T13:05:23.783Z,61.90
2022-11-24T13:08:01.947Z,69.20
2022-11-24T13:13:27.067Z,58.70
2022-11-24T13:19:09.380Z,67.40
2022-11-24T13:21:41.222Z,50.10
2022-11-24T13:24:20.136Z,62.20
2022-11-24T13:26:54.025Z,55.10
2022-11-24T13:29:29.113Z,59.80
2022-11-24T13:32:21.409Z,67.10
2022-11-24T13:34:55.671Z,67.30
2022-11-24T13:37:34.620Z,70.60
2022-11-24T13:40:13.742Z,72.00
2022-11-24T13:42:58.031Z,72.40
2022-11-24T13:45:42.274Z,65.20
2022-11-24T13:48:20.541Z,66.50
2022-11-24T13:50:53.692Z,65.00
2022-11-24T13:53:49.533Z,67.00
2022-11-24T13:56:22.239Z,70.70
2022-11-24T13:58:57.249Z,66.80
2022-11-24T14:01:28.950Z,66.90
2022-11-24T14:04:29.915Z,63.20
2022-11-24T14:09:55.102Z,61.80
2022-11-24T14:12:27.267Z,73.90
2022-11-24T14:15:36.462Z,66.10
2022-11-24T14:18:22.420Z,74.10
2022-11-24T14:20:51.259Z,76.60
2022-11-24T14:23:20.050Z,74.10
2022-11-24T14:25:53.219Z,89.70
2022-11-24T14:28:31.295Z,83.40
2022-11-24T14:31:26.175Z,82.30
2022-11-24T14:34:17.132Z,84.90
2022-11-24T14:36:45.998Z,84.40
2022-11-24T14:39:19.002Z,80.20
2022-11-24T14:42:21.760Z,81.90
2022-11-24T14:45:03.410Z,87.60
2022-11-24T14:47:45.117Z,83.10
2022-11-24T14:50:19.812Z,85.40
2022-11-24T14:52:58.393Z,92.20
2022-11-24T14:55:33.439Z,93.40
2022-11-24T14:58:02.119Z,93.50
2022-11-24T15:00:33.851Z,94.40
2022-11-24T15:03:02.380Z,91.30
2022-11-24T15:05:55.064Z,90.50
2022-11-24T15:08:26.810Z,97.00
2022-11-24T15:11:04.822Z,90.90
2022-11-24T15:13:38.542Z,91.00
2022-11-24T15:16:16.398Z,87.10
2022-11-24T15:18:49.502Z,99.10
2022-11-24T15:21:34.701Z,90.90
2022-11-24T15:24:20.227Z,87.90
2022-11-24T15:26:48.791Z,94.80
2022-11-24T15:29:17.381Z,84.20
2022-11-24T15:31:51.002Z,86.90
2022-11-24T15:34:21.222Z,87.60
2022-11-24T15:36:49.940Z,90.70
2022-11-24T15:39:18.661Z,89.20
2022-11-24T15:41:47.341Z,84.20
2022-11-24T15:44:16.180Z,81.20
2022-11-24T15:46:44.854Z,81.80
2022-11-24T15:49:13.761Z,77.70
2022-11-24T15:51:46.381Z,79.10
2022-11-24T15:54:19.659Z,80.90
2022-11-24T15:56:48.421Z,73.30
2022-11-24T15:59:20.688Z,83.40
2022-11-24T16:01:51.151Z,80.40
2022-11-24T16:04:20.159Z,76.40
2022-11-24T16:06:49.181Z,79.30
2022-11-24T16:09:18.081Z,71.70
2022-11-24T16:11:46.733Z,73.50
2022-11-24T16:14:15.585Z,79.80
2022-11-24T16:16:44.638Z,70.60
2022-11-24T16:19:16.102Z,70.50
2022-11-24T16:21:49.020Z,73.00
2022-11-24T16:24:17.641Z,74.50
2022-11-24T16:26:46.307Z,82.10
2022-11-24T16:29:15.307Z,123.10
2022-11-24T16:31:44.799Z,95.20
2022-11-24T16:34:13.621Z,82.80
2022-11-24T16:36:42.251Z,116.00
2022-11-24T16:39:10.983Z,122.00
2022-11-24T16:41:39.521Z,106.80
2022-11-24T16:44:08.220Z,102.50
2022-11-24T16:46:36.843Z,87.40
2022-11-24T16:49:05.584Z,87.70
2022-11-24T16:51:35.165Z,80.00
2022-11-24T16:54:04.922Z,90.20
2022-11-24T16:56:33.742Z,72.80
2022-11-24T16:59:02.584Z,77.00
2022-11-24T17:01:33.178Z,76.90
2022-11-24T17:04:02.605Z,76.80
2022-11-24T17:06:33.901Z,77.10
2022-11-24T17:09:02.743Z,79.40
2022-11-24T17:11:31.682Z,77.40
2022-11-24T17:14:00.402Z,79.70
2022-11-24T17:16:29.848Z,82.10
2022-11-24T17:18:59.148Z,78.60
2022-11-24T17:21:28.940Z,76.10
2022-11-24T17:24:05.682Z,85.10
2022-11-24T17:26:35.640Z,83.60
2022-11-24T17:29:04.500Z,80.00
2022-11-24T17:31:36.182Z,86.00
2022-11-24T17:34:06.860Z,73.30
2022-11-24T17:36:36.410Z,83.00
2022-11-24T17:39:07.499Z,84.10
2022-11-24T17:41:36.620Z,74.40
2022-11-24T17:44:06.663Z,83.80
2022-11-24T17:46:37.460Z,95.60
2022-11-24T17:49:07.234Z,109.90
2022-11-24T17:51:36.022Z,102.50
2022-11-24T17:54:24.623Z,109.10
2022-11-24T17:56:53.742Z,98.70
2022-11-24T17:59:22.470Z,98.80
2022-11-24T18:01:51.110Z,109.30
2022-11-24T18:04:19.931Z,106.50
2022-11-24T18:06:48.620Z,114.20
2022-11-24T18:09:17.200Z,106.60
2022-11-24T18:11:48.201Z,110.60
2022-11-24T18:14:16.881Z,105.50
2022-11-24T18:16:45.675Z,117.30
2022-11-24T18:19:14.390Z,112.40
2022-11-24T18:21:46.906Z,117.70
2022-11-24T18:24:18.537Z,102.90
2022-11-24T18:26:50.866Z,113.20
2022-11-24T18:29:19.564Z,107.80
2022-11-24T18:31:48.363Z,112.50
2022-11-24T18:34:17.060Z,116.00
2022-11-24T18:36:47.861Z,98.00
2022-11-24T18:39:18.460Z,104.80
2022-11-24T18:41:47.899Z,112.20
2022-11-24T18:44:16.823Z,98.90
2022-11-24T18:46:45.640Z,112.10
2022-11-24T18:49:14.482Z,94.60
2022-11-24T18:51:43.905Z,80.00
2022-11-24T18:54:12.631Z,79.90
2022-11-24T18:56:41.342Z,76.80
2022-11-24T18:59:10.040Z,92.50
2022-11-24T19:01:38.717Z,87.20
2022-11-24T19:04:07.660Z,85.20
2022-11-24T19:06:38.520Z,90.60
2022-11-24T19:09:13.782Z,87.20
2022-11-24T19:11:47.622Z,86.80
2022-11-24T19:14:19.590Z,82.60
2022-11-24T19:16:48.597Z,74.90
2022-11-24T19:19:17.651Z,74.10
2022-11-24T19:21:46.426Z,73.40
2022-11-24T19:24:14.963Z,83.50
2022-11-24T19:26:43.621Z,88.70
2022-11-24T19:29:12.500Z,105.10
2022-11-24T19:31:41.608Z,98.20
2022-11-24T19:34:10.433Z,92.50
2022-11-24T19:36:41.201Z,74.30
2022-11-24T19:39:17.076Z,91.40
2022-11-24T19:41:46.023Z,111.50
2022-11-24T19:44:14.874Z,87.90
2022-11-24T19:46:43.540Z,107.70
2022-11-24T19:49:12.668Z,116.20
2022-11-24T19:51:41.651Z,107.60
2022-11-24T19:54:14.982Z,110.50
2022-11-24T19:56:43.740Z,95.00
2022-11-24T19:59:13.963Z,100.20
2022-11-24T20:01:42.872Z,120.30
2022-11-24T20:04:15.862Z,122.80
2022-11-24T20:06:47.482Z,122.00
2022-11-24T20:09:18.264Z,115.60
2022-11-24T20:11:48.900Z,113.30
2022-11-24T20:14:19.721Z,117.90
2022-11-24T20:16:48.915Z,114.80
2022-11-24T20:19:19.031Z,116.10
2022-11-24T20:21:49.780Z,119.10
2022-11-24T20:24:25.200Z,118.70
2022-11-24T20:26:58.635Z,120.70
2022-11-24T20:29:32.562Z,113.90
2022-11-24T20:32:01.673Z,110.60
2022-11-24T20:34:30.744Z,109.20
2022-11-24T20:36:59.741Z,120.00
2022-11-24T20:39:29.153Z,110.60
2022-11-24T20:41:58.560Z,109.30
2022-11-24T20:44:28.260Z,110.80
2022-11-24T20:47:00.602Z,106.10
2022-11-24T20:49:29.628Z,113.20
2022-11-24T20:51:58.500Z,91.50
2022-11-24T20:54:27.300Z,104.40
2022-11-24T20:56:56.311Z,133.30
2022-11-24T20:59:26.215Z,133.40
2022-11-24T21:01:59.767Z,124.40
2022-11-24T21:04:28.822Z,123.20
2022-11-24T21:06:58.120Z,137.60
2022-11-24T21:09:27.881Z,130.90
2022-11-24T21:11:56.820Z,109.10
2022-11-24T21:14:26.836Z,134.30
2022-11-24T21:16:58.090Z,131.60
2022-11-24T21:19:27.083Z,147.90
2022-11-24T21:21:55.962Z,117.30
2022-11-24T21:24:24.959Z,171.20
2022-11-24T21:26:53.860Z,163.90
2022-11-24T21:29:24.440Z,173.90
2022-11-24T21:31:53.309Z,153.80
2022-11-24T21:34:22.584Z,147.50
2022-11-24T21:36:51.676Z,157.60
2022-11-24T21:39:21.113Z,144.20
2022-11-24T21:41:50.259Z,140.00
2022-11-24T21:44:19.161Z,140.70
2022-11-24T21:46:54.375Z,135.20
2022-11-24T21:49:25.140Z,132.60
2022-11-24T21:51:56.230Z,130.10
2022-11-24T21:54:25.484Z,127.70
2022-11-24T21:56:54.881Z,131.60
2022-11-24T21:59:23.988Z,116.50
2022-11-24T22:01:52.911Z,121.90
2022-11-24T22:04:21.781Z,105.30
2022-11-24T22:06:53.523Z,107.00
2022-11-24T22:09:22.821Z,99.60
2022-11-24T22:11:53.154Z,107.40
2022-11-24T22:14:22.120Z,96.40
2022-11-24T22:16:51.185Z,115.20
2022-11-24T22:19:21.143Z,113.00
2022-11-24T22:21:49.939Z,118.70
2022-11-24T22:24:21.781Z,110.00
2022-11-24T22:26:55.292Z,104.10
2022-11-24T22:29:24.180Z,99.90
2022-11-24T22:31:52.835Z,107.00
2022-11-24T22:34:21.980Z,108.10
2022-11-24T22:36:50.871Z,108.10
2022-11-24T22:39:19.970Z,96.60
2022-11-24T22:41:48.640Z,93.50
2022-11-24T22:44:17.439Z,87.00
2022-11-24T22:46:46.600Z,91.80
2022-11-24T22:49:15.540Z,91.00
2022-11-24T22:51:45.143Z,95.40
2022-11-24T22:54:14.641Z,86.70
2022-11-24T22:56:43.520Z,70.30
2022-11-24T22:59:12.155Z,64.10
2022-11-24T23:01:40.960Z,61.10
2022-11-24T23:04:09.799Z,51.90
2022-11-24T23:06:38.860Z,57.10
2022-11-24T23:09:11.041Z,53.50
2022-11-24T23:11:41.801Z,53.90
2022-11-24T23:14:16.239Z,57.70
2022-11-24T23:16:45.137Z,47.10
2022-11-24T23:19:15.284Z,59.70
2022-11-24T23:21:44.191Z,59.20
2022-11-24T23:24:16.201Z,45.60
2022-11-24T23:26:44.973Z,65.60
2022-11-24T23:29:14.148Z,70.20
2022-11-24T23:31:43.100Z,71.00
2022-11-24T23:34:14.890Z,64.50
2022-11-24T23:36:43.824Z,66.10
2022-11-24T23:39:14.848Z,59.40
2022-11-24T23:41:43.926Z,65.80
2022-11-24T23:44:12.871Z,63.40
2022-11-24T23:46:41.713Z,63.00
2022-11-24T23:49:10.557Z,61.90
2022-11-24T23:51:42.339Z,64.90
2022-11-24T23:54:29.451Z,65.40
2022-11-24T23:56:58.319Z,66.80
2022-11-24T23:59:27.344Z,63.60
